Time;durP1;ratioP1;P1;durP2;ratioP2;P2;SDS_P1;SDS_P2;PMS_P1;PMS_P2;Temp;Humidity;BMP_temperature;BMP_pressure;BME280_temperature;BME280_humidity;BME280_pressure;Samples;Min_cycle;Max_cycle;Signal;HPM_P1;HPM_P2
2023/12/20 00:00:55;;;;;;;;;;;;;;;3.79;100.00;101018.97;5013181;28;20439;-79
2023/12/20 00:03:20;;;;;;;;;;;;;;;3.78;100.00;101033.28;5012359;28;19968;-80
2023/12/20 00:05:46;;;;;;;;;;;;;;;3.75;100.00;101033.56;5012457;28;19961;-79
2023/12/20 00:08:12;;;;;;;;;;;;;;;3.71;100.00;101040.16;4995491;28;19929;-79
2023/12/20 00:10:37;;;;;;;;;;;;;;;3.67;100.00;101029.97;4999414;28;19921;-79
2023/12/20 00:13:06;;;;;;;;;;;;;;;3.64;100.00;101031.09;5002648;28;19926;-79
2023/12/20 00:15:31;;;;;;;;;;;;;;;3.66;100.00;101034.47;5000320;28;19922;-80
2023/12/20 00:17:56;;;;;;;;;;;;;;;3.61;100.00;101039.38;4998294;28;19928;-80
2023/12/20 00:20:21;;;;;;;;;;;;;;;3.64;100.00;101041.75;5001830;28;19953;-79
2023/12/20 00:22:47;;;;;;;;;;;;;;;3.66;100.00;101029.13;5005235;28;19976;-79
2023/12/20 00:25:12;;;;;;;;;;;;;;;3.60;100.00;101027.91;5008346;28;19973;-80
2023/12/20 00:27:37;;;;;;;;;;;;;;;3.49;100.00;101028.94;5014353;28;19925;-79
2023/12/20 00:30:03;;;;;;;;;;;;;;;3.48;100.00;101032.56;5000031;28;19922;-79
2023/12/20 00:32:28;;;;;;;;;;;;;;;3.49;100.00;101022.75;5003477;28;19925;-80
2023/12/20 00:34:53;;;;;;;;;;;;;;;3.45;100.00;101019.56;5014535;28;19928;-80
2023/12/20 00:37:19;;;;;;;;;;;;;;;3.44;100.00;101020.53;5011970;28;19921;-79
2023/12/20 00:39:44;;;;;;;;;;;;;;;3.40;100.00;101027.13;5003652;28;20104;-79
2023/12/20 00:42:12;;;;;;;;;;;;;;;3.35;100.00;101029.41;5000045;28;20006;-79
2023/12/20 00:44:37;;;;;;;;;;;;;;;3.32;100.00;101029.69;5003179;28;20012;-80
2023/12/20 00:47:02;;;;;;;;;;;;;;;3.29;100.00;101022.81;4998360;28;20024;-79
2023/12/20 00:49:28;;;;;;;;;;;;;;;3.30;100.00;101029.00;5004115;28;19928;-79
2023/12/20 00:51:53;;;;;;;;;;;;;;;3.34;100.00;101033.88;5015071;28;20001;-79
2023/12/20 00:54:18;;;;;;;;;;;;;;;3.39;100.00;101027.28;5007106;28;19926;-79
2023/12/20 00:56:46;;;;;;;;;;;;;;;3.42;100.00;101030.47;4999239;28;19922;-79
2023/12/20 00:59:12;;;;;;;;;;;;;;;3.49;100.00;101036.91;5015344;28;19964;-82
2023/12/20 01:01:43;;;;;;;;;;;;;;;3.51;100.00;101030.59;5096640;23;20494;-81
2023/12/20 01:04:15;;;;;;;;;;;;;;;3.52;100.00;101026.97;5006839;28;20302;-81
2023/12/20 01:06:40;;;;;;;;;;;;;;;3.55;100.00;101030.16;5014457;28;19917;-81
2023/12/20 01:09:11;;;;;;;;;;;;;;;3.46;100.00;101031.03;5009193;28;19929;-81
2023/12/20 01:11:46;;;;;;;;;;;;;;;3.40;100.00;101035.09;4996754;28;19922;-81
2023/12/20 01:14:11;;;;;;;;;;;;;;;3.35;100.00;101026.75;5005790;28;19975;-79
2023/12/20 01:16:39;;;;;;;;;;;;;;;3.27;100.00;101026.63;5001206;28;19925;-79
2023/12/20 01:19:06;;;;;;;;;;;;;;;3.23;100.00;101022.56;5093024;23;19951;-79
2023/12/20 01:21:31;;;;;;;;;;;;;;;3.17;100.00;101013.34;5015603;28;19971;-79
2023/12/20 01:23:57;;;;;;;;;;;;;;;3.13;100.00;101010.13;5023305;28;19988;-79
2023/12/20 01:26:25;;;;;;;;;;;;;;;3.10;100.00;101018.41;5010498;28;19973;-79
2023/12/20 01:28:50;;;;;;;;;;;;;;;3.07;100.00;101015.19;5009968;28;19949;-79
2023/12/20 01:31:15;;;;;;;;;;;;;;;3.01;100.00;101017.44;5015102;28;19968;-79
2023/12/20 01:33:47;;;;;;;;;;;;;;;2.93;100.00;101019.97;4999612;28;19921;-79
2023/12/20 01:36:12;;;;;;;;;;;;;;;2.92;100.00;101017.47;5007727;23;19971;-79
2023/12/20 01:38:37;;;;;;;;;;;;;;;2.93;100.00;101029.78;4996468;28;20267;-79
2023/12/20 01:41:02;;;;;;;;;;;;;;;2.95;100.00;101023.31;4994398;28;19929;-79
2023/12/20 01:43:28;;;;;;;;;;;;;;;2.92;100.00;101031.56;4995246;28;19972;-79
2023/12/20 01:45:54;;;;;;;;;;;;;;;2.85;100.00;101033.97;4996528;28;19922;-78
2023/12/20 01:48:19;;;;;;;;;;;;;;;2.87;100.00;101033.84;4981640;28;19968;-79
2023/12/20 01:50:45;;;;;;;;;;;;;;;2.90;100.00;101035.38;5005413;28;20024;-79
2023/12/20 01:53:10;;;;;;;;;;;;;;;2.82;100.00;101031.63;4995853;28;20370;-78
2023/12/20 01:55:36;;;;;;;;;;;;;;;2.82;100.00;101036.09;4995507;28;20154;-79
2023/12/20 01:58:01;;;;;;;;;;;;;;;2.86;100.00;101032.16;4979783;28;20259;-79
2023/12/20 02:00:27;;;;;;;;;;;;;;;2.87;100.00;101032.00;4997008;28;19922;-79
2023/12/20 02:02:53;;;;;;;;;;;;;;;2.88;100.00;101031.03;5005382;28;19925;-79
2023/12/20 02:05:18;;;;;;;;;;;;;;;2.84;100.00;101023.50;4997038;28;19922;-79
2023/12/20 02:07:43;;;;;;;;;;;;;;;2.91;100.00;101018.44;4996747;28;19929;-79
2023/12/20 02:10:08;;;;;;;;;;;;;;;2.87;100.00;101016.06;4990509;28;19932;-79
2023/12/20 02:12:34;;;;;;;;;;;;;;;2.86;100.00;101034.81;4995136;28;19922;-79
2023/12/20 02:14:59;;;;;;;;;;;;;;;2.86;100.00;101033.00;4995708;28;19929;-79
2023/12/20 02:17:24;;;;;;;;;;;;;;;2.83;100.00;101027.94;4994284;28;20008;-79
2023/12/20 02:19:49;;;;;;;;;;;;;;;2.82;100.00;101028.09;4978000;28;19968;-78
2023/12/20 02:22:15;;;;;;;;;;;;;;;2.85;100.00;101019.84;5001830;28;19921;-78
2023/12/20 02:24:40;;;;;;;;;;;;;;;2.83;100.00;101027.13;5001177;28;19991;-79
2023/12/20 02:27:06;;;;;;;;;;;;;;;2.82;100.00;101030.75;5001102;28;20601;-79
2023/12/20 02:29:31;;;;;;;;;;;;;;;2.78;100.00;101035.53;5005107;28;19930;-79
2023/12/20 02:31:56;;;;;;;;;;;;;;;2.81;100.00;101032.59;4980242;28;19984;-79
2023/12/20 02:34:21;;;;;;;;;;;;;;;2.80;100.00;101032.72;4999932;28;19921;-79
2023/12/20 02:36:46;;;;;;;;;;;;;;;2.75;100.00;101035.81;4996562;28;19928;-79
2023/12/20 02:39:13;;;;;;;;;;;;;;;2.78;100.00;101032.03;4995239;28;19953;-79
2023/12/20 02:41:38;;;;;;;;;;;;;;;2.84;100.00;101034.94;4998181;28;19922;-78
2023/12/20 02:44:03;;;;;;;;;;;;;;;2.92;100.00;101017.47;5009294;28;19972;-79
2023/12/20 02:46:29;;;;;;;;;;;;;;;2.97;100.00;101007.25;5001220;28;19921;-78
2023/12/20 02:48:54;;;;;;;;;;;;;;;2.98;100.00;101003.59;4997505;28;19926;-79
2023/12/20 02:51:19;;;;;;;;;;;;;;;3.00;100.00;101013.09;4999194;28;19929;-79
2023/12/20 02:53:44;;;;;;;;;;;;;;;2.99;100.00;101007.94;5002011;28;19922;-79
2023/12/20 02:56:10;;;;;;;;;;;;;;;3.02;100.00;101011.13;4997963;28;19925;-79
2023/12/20 02:58:38;;;;;;;;;;;;;;;3.06;100.00;101013.53;4995944;28;19922;-79
2023/12/20 03:01:03;;;;;;;;;;;;;;;3.06;100.00;101009.03;4995154;28;19955;-79
2023/12/20 03:03:29;;;;;;;;;;;;;;;3.02;100.00;101010.28;4993782;28;19932;-79
2023/12/20 03:05:54;;;;;;;;;;;;;;;3.11;100.00;101009.44;4994970;28;19929;-79
2023/12/20 03:08:19;;;;;;;;;;;;;;;3.15;100.00;101002.84;4994631;28;19924;-79
2023/12/20 03:10:45;;;;;;;;;;;;;;;3.14;100.00;100998.53;4992913;28;19922;-79
2023/12/20 03:13:10;;;;;;;;;;;;;;;3.14;100.00;100990.53;4992246;28;19928;-79
2023/12/20 03:15:35;;;;;;;;;;;;;;;3.09;100.00;100995.44;4993999;28;20008;-79
2023/12/20 03:18:07;;;;;;;;;;;;;;;3.10;100.00;101002.44;4992382;28;19926;-79
2023/12/20 03:20:34;;;;;;;;;;;;;;;3.14;100.00;101000.31;4993932;28;19953;-79
2023/12/20 03:22:59;;;;;;;;;;;;;;;3.24;100.00;100997.63;4993827;28;19928;-79
2023/12/20 03:25:24;;;;;;;;;;;;;;;3.13;100.00;100988.84;4992259;28;19921;-79
2023/12/20 03:27:50;;;;;;;;;;;;;;;3.12;100.00;100989.84;4993242;28;19922;-79
2023/12/20 03:30:15;;;;;;;;;;;;;;;3.15;100.00;100984.22;4993524;28;19996;-79
2023/12/20 03:32:43;;;;;;;;;;;;;;;3.23;100.00;100994.16;4992193;28;19980;-79
2023/12/20 03:35:08;;;;;;;;;;;;;;;3.22;100.00;100983.63;4993034;28;19922;-79
2023/12/20 03:37:34;;;;;;;;;;;;;;;3.28;100.00;100977.75;4993643;28;20432;-79
2023/12/20 03:39:59;;;;;;;;;;;;;;;3.25;100.00;100978.03;4992137;28;20048;-79
2023/12/20 03:42:25;;;;;;;;;;;;;;;3.23;100.00;100974.66;4975762;28;19968;-79
2023/12/20 03:44:50;;;;;;;;;;;;;;;3.21;100.00;100973.97;4995267;28;19946;-79
2023/12/20 03:47:18;;;;;;;;;;;;;;;3.19;100.00;100979.44;4993256;28;19922;-79
2023/12/20 03:49:43;;;;;;;;;;;;;;;3.24;100.00;100969.22;4994244;28;19918;-79
2023/12/20 03:52:08;;;;;;;;;;;;;;;3.28;100.00;100975.91;4997830;28;19917;-79
2023/12/20 03:54:34;;;;;;;;;;;;;;;3.29;100.00;100971.44;4996161;28;19925;-79
2023/12/20 03:57:00;;;;;;;;;;;;;;;3.30;100.00;100968.63;4995950;28;19921;-80
2023/12/20 03:59:25;;;;;;;;;;;;;;;3.24;100.00;100963.06;4997592;28;19922;-79
2023/12/20 04:01:53;;;;;;;;;;;;;;;3.18;100.00;100970.63;4978398;28;20016;-79
2023/12/20 04:04:18;;;;;;;;;;;;;;;3.16;100.00;100966.44;4996836;28;19922;-80
2023/12/20 04:06:44;;;;;;;;;;;;;;;3.12;100.00;100971.22;4997673;28;20349;-79
2023/12/20 04:09:18;;;;;;;;;;;;;;;3.13;100.00;100974.69;4995152;28;20020;-79
2023/12/20 04:11:43;;;;;;;;;;;;;;;3.05;100.00;100980.75;4996108;28;19937;-79
2023/12/20 04:14:08;;;;;;;;;;;;;;;3.00;100.00;100981.19;4996185;28;19957;-79
2023/12/20 04:16:34;;;;;;;;;;;;;;;3.04;100.00;100984.38;4996594;28;19928;-79
2023/12/20 04:18:59;;;;;;;;;;;;;;;3.09;100.00;100984.81;4996004;28;20321;-79
2023/12/20 04:21:30;;;;;;;;;;;;;;;3.08;100.00;100993.75;4996527;28;19921;-79
2023/12/20 04:23:55;;;;;;;;;;;;;;;3.09;100.00;100984.81;4997072;28;19928;-79
2023/12/20 04:26:20;;;;;;;;;;;;;;;3.10;100.00;100983.81;4996261;28;20282;-79
2023/12/20 04:28:46;;;;;;;;;;;;;;;3.02;100.00;100989.00;4995936;28;19949;-79
2023/12/20 04:31:11;;;;;;;;;;;;;;;2.95;100.00;100994.06;4995841;28;19988;-79
2023/12/20 04:33:36;;;;;;;;;;;;;;;2.92;100.00;100998.84;4996693;28;19925;-79
2023/12/20 04:36:04;;;;;;;;;;;;;;;2.84;100.00;100988.91;4995208;28;19929;-79
2023/12/20 04:38:29;;;;;;;;;;;;;;;2.82;100.00;100997.06;4995380;28;19991;-79
2023/12/20 04:40:55;;;;;;;;;;;;;;;2.84;100.00;100991.59;4994663;28;20008;-79
2023/12/20 04:43:20;;;;;;;;;;;;;;;2.82;100.00;100983.75;4994532;28;20016;-79
2023/12/20 04:45:45;;;;;;;;;;;;;;;2.87;100.00;100981.50;4996127;28;20359;-79
2023/12/20 04:48:10;;;;;;;;;;;;;;;2.94;100.00;100973.78;4995082;28;20278;-79
2023/12/20 04:50:36;;;;;;;;;;;;;;;2.99;100.00;100976.03;4996334;28;19948;-79
2023/12/20 04:53:01;;;;;;;;;;;;;;;3.07;100.00;100986.75;4996940;28;19917;-79
2023/12/20 04:55:26;;;;;;;;;;;;;;;3.11;100.00;100989.97;4978116;28;19932;-79
2023/12/20 04:57:51;;;;;;;;;;;;;;;3.03;100.00;100986.22;4994954;28;20000;-79
2023/12/20 05:00:17;;;;;;;;;;;;;;;3.00;100.00;100980.38;4995607;28;19930;-79
2023/12/20 05:02:42;;;;;;;;;;;;;;;2.98;100.00;100982.31;4994634;28;19926;-79
2023/12/20 05:05:17;;;;;;;;;;;;;;;3.03;100.00;100985.38;4995368;28;19918;-83
2023/12/20 05:07:43;;;;;;;;;;;;;;;3.04;100.00;100976.41;4996596;28;19922;-80
2023/12/20 05:10:08;;;;;;;;;;;;;;;3.14;100.00;100971.06;4995004;28;19933;-81
2023/12/20 05:12:34;;;;;;;;;;;;;;;3.12;100.00;100968.56;4994951;28;19925;-86
2023/12/20 05:14:59;;;;;;;;;;;;;;;3.15;100.00;100957.63;5004474;28;20263;-75
2023/12/20 05:17:25;;;;;;;;;;;;;;;3.16;100.00;100963.78;5003772;28;19969;-78
2023/12/20 05:19:50;;;;;;;;;;;;;;;3.23;100.00;100964.03;5011076;28;19983;-79
2023/12/20 05:22:15;;;;;;;;;;;;;;;3.36;100.00;100961.88;5007210;28;19976;-80
2023/12/20 05:24:40;;;;;;;;;;;;;;;3.41;100.00;100964.13;4996084;28;19917;-80
2023/12/20 05:27:06;;;;;;;;;;;;;;;3.46;100.00;100962.69;4996030;28;19948;-79
2023/12/20 05:29:31;;;;;;;;;;;;;;;3.55;100.00;100949.44;4996040;28;19917;-79
2023/12/20 05:31:57;;;;;;;;;;;;;;;3.47;100.00;100959.03;4994680;28;19933;-79
2023/12/20 05:34:23;;;;;;;;;;;;;;;3.45;100.00;100958.34;4995804;28;20020;-79
2023/12/20 05:36:51;;;;;;;;;;;;;;;3.59;100.00;100950.84;4995941;28;20340;-79
2023/12/20 05:39:16;;;;;;;;;;;;;;;3.58;100.00;100957.16;4994576;28;19922;-79
2023/12/20 05:41:41;;;;;;;;;;;;;;;3.51;100.00;100951.59;4996226;28;19918;-78
2023/12/20 05:44:10;;;;;;;;;;;;;;;3.54;100.00;100955.75;4998013;28;19925;-78
2023/12/20 05:46:36;;;;;;;;;;;;;;;3.60;100.00;100955.19;5002186;28;19922;-79
2023/12/20 05:49:02;;;;;;;;;;;;;;;3.54;100.00;100961.94;5000470;28;20325;-79
2023/12/20 05:51:27;;;;;;;;;;;;;;;3.52;100.00;100953.25;5001502;28;19945;-79
2023/12/20 05:53:52;;;;;;;;;;;;;;;3.60;100.00;100960.50;4994023;28;19976;-78
2023/12/20 05:59:22;;;;;;;;;;;;;;;3.73;100.00;100966.31;4987450;28;19984;-79
2023/12/20 06:01:47;;;;;;;;;;;;;;;3.78;100.00;100968.53;4995213;28;19926;-79
2023/12/20 06:04:18;;;;;;;;;;;;;;;3.73;100.00;100968.97;4994502;28;20012;-79
2023/12/20 06:07:09;;;;;;;;;;;;;;;3.83;100.00;100971.56;4995519;28;19942;-78
2023/12/20 06:09:52;;;;;;;;;;;;;;;3.85;100.00;100974.09;4993840;28;20284;-79
2023/12/20 06:12:23;;;;;;;;;;;;;;;3.79;100.00;100971.03;4991448;28;19922;-79
2023/12/20 06:15:07;;;;;;;;;;;;;;;3.82;100.00;100969.06;4996644;28;20547;-79
2023/12/20 06:17:39;;;;;;;;;;;;;;;3.85;100.00;100974.09;5013110;28;19922;-79
2023/12/20 06:20:19;;;;;;;;;;;;;;;3.89;100.00;100978.13;5007545;28;19989;-79
2023/12/20 06:22:51;;;;;;;;;;;;;;;3.99;100.00;100967.41;4995321;28;19922;-79
2023/12/20 06:25:19;;;;;;;;;;;;;;;4.03;100.00;100974.13;4994734;28;19929;-79
2023/12/20 06:27:47;;;;;;;;;;;;;;;3.99;100.00;100976.25;4995551;28;19980;-79
2023/12/20 06:30:18;;;;;;;;;;;;;;;4.01;100.00;100974.28;4995407;28;19987;-79
2023/12/20 06:32:52;;;;;;;;;;;;;;;4.04;100.00;100976.66;4995972;28;20378;-79
2023/12/20 06:38:42;;;;;;;;;;;;;;;4.10;100.00;100957.38;4999074;28;20450;-79
2023/12/20 06:44:50;;;;;;;;;;;;;;;4.06;100.00;100957.84;4993645;28;19933;-79
2023/12/20 06:47:27;;;;;;;;;;;;;;;4.21;100.00;100963.47;4998367;28;19929;-79
2023/12/20 06:49:53;;;;;;;;;;;;;;;4.08;100.00;100959.34;4995310;28;19921;-79
2023/12/20 06:58:54;;;;;;;;;;;;;;;4.06;100.00;100953.31;4993351;28;19956;-79
2023/12/20 07:01:50;;;;;;;;;;;;;;;4.10;100.00;100946.72;4992045;28;19967;-79
2023/12/20 07:04:20;;;;;;;;;;;;;;;4.11;100.00;100955.56;4993671;28;19917;-79
2023/12/20 07:06:57;;;;;;;;;;;;;;;4.22;100.00;100950.00;4994549;28;19993;-79
2023/12/20 07:09:53;;;;;;;;;;;;;;;4.16;100.00;100949.78;4991534;28;19922;-86
2023/12/20 07:12:55;;;;;;;;;;;;;;;4.25;100.00;100948.84;4994469;28;19949;-82
2023/12/20 07:19:00;;;;;;;;;;;;;;;;;;;;;
2023/12/20 07:21:41;;;;;;;;;;;;;;;4.30;100.00;100951.06;4969597;28;19926;-82
2023/12/20 07:24:27;;;;;;;;;;;;;;;4.31;100.00;100950.06;4992769;28;20579;-84
2023/12/20 07:53:54;;;;;;;;;;;;;;;4.47;100.00;100957.34;5258291;23;19919;-82
2023/12/20 07:59:44;;;;;;;;;;;;;;;4.55;100.00;100954.78;4999003;28;20294;-82
2023/12/20 08:02:50;;;;;;;;;;;;;;;4.61;100.00;100943.47;4997252;28;19922;-83
2023/12/20 08:05:52;;;;;;;;;;;;;;;4.57;100.00;100936.78;4900697;29;19923;-82
2023/12/20 08:08:42;;;;;;;;;;;;;;;4.56;100.00;100940.44;4924943;29;19923;-82
2023/12/20 08:15:00;;;;;;;;;;;;;;;;;;;;;
2023/12/20 08:18:20;;;;;;;;;;;;;;;;;;;;;
2023/12/20 08:26:48;;;;;;;;;;;;;;;4.65;100.00;100954.69;4961135;28;19949;-82
2023/12/20 08:50:48;;;;;;;;;;;;;;;4.84;100.00;100937.63;5650705;23;20205;-83
2023/12/20 08:56:23;;;;;;;;;;;;;;;4.64;100.00;100940.50;4980846;28;19933;-83
2023/12/20 09:02:20;;;;;;;;;;;;;;;4.67;100.00;100926.84;4995894;28;19928;-83
2023/12/20 09:05:13;;;;;;;;;;;;;;;4.55;100.00;100933.44;4996703;28;19929;-82
2023/12/20 09:11:22;;;;;;;;;;;;;;;;;;;;;
2023/12/20 09:16:23;;;;;;;;;;;;;;;4.51;100.00;100929.41;4973242;28;19950;-83
2023/12/20 09:22:20;;;;;;;;;;;;;;;4.46;100.00;100921.88;4976010;28;19929;-83
2023/12/20 09:25:12;;;;;;;;;;;;;;;4.36;100.00;100929.97;4975725;28;19973;-83
2023/12/20 09:33:11;;;;;;;;;;;;;;;4.28;100.00;100931.72;4992905;28;19992;-83
2023/12/20 09:35:52;;;;;;;;;;;;;;;4.37;100.00;100928.13;4982646;28;19921;-84
2023/12/20 09:41:42;;;;;;;;;;;;;;;4.34;100.00;100937.28;4981466;28;20372;-83
2023/12/20 09:44:19;;;;;;;;;;;;;;;4.30;100.00;100938.56;4979357;28;19922;-84
2023/12/20 09:46:48;;;;;;;;;;;;;;;4.24;100.00;100941.84;5074096;23;19925;-83
2023/12/20 09:49:13;;;;;;;;;;;;;;;4.31;100.00;100948.25;5000022;23;20020;-82
2023/12/20 09:54:50;;;;;;;;;;;;;;;4.42;100.00;100949.81;4995145;28;20444;-82
2023/12/20 09:57:16;;;;;;;;;;;;;;;4.40;100.00;100942.00;4973846;28;19922;-83
2023/12/20 10:03:00;;;;;;;;;;;;;;;4.46;100.00;100945.03;5422828;23;19937;-82
2023/12/20 10:08:53;;;;;;;;;;;;;;;4.49;100.00;100944.72;4979371;28;20334;-81
2023/12/20 10:11:46;;;;;;;;;;;;;;;4.54;100.00;100937.09;4980147;28;19928;-81
2023/12/20 10:14:29;;;;;;;;;;;;;;;4.57;100.00;100943.94;4986817;28;19936;-80
2023/12/20 10:16:56;;;;;;;;;;;;;;;4.50;100.00;100946.38;4974951;28;19922;-82
2023/12/20 10:19:50;;;;;;;;;;;;;;;4.46;100.00;100945.03;4975032;28;19953;-80
2023/12/20 10:22:21;;;;;;;;;;;;;;;4.48;100.00;100949.22;4974858;28;20012;-83
2023/12/20 10:24:56;;;;;;;;;;;;;;;4.41;100.00;100942.81;4987223;28;19921;-83
2023/12/20 10:27:21;;;;;;;;;;;;;;;4.40;100.00;100944.66;4986084;28;19961;-82
2023/12/20 10:29:46;;;;;;;;;;;;;;;4.42;100.00;100936.50;4977381;28;20032;-82
2023/12/20 10:32:21;;;;;;;;;;;;;;;4.45;100.00;100944.19;4991205;28;19941;-83
2023/12/20 10:34:48;;;;;;;;;;;;;;;4.46;100.00;100945.03;5272007;23;20159;-81
2023/12/20 10:37:13;;;;;;;;;;;;;;;4.46;100.00;100961.00;4997059;28;19941;-81
2023/12/20 10:42:53;;;;;;;;;;;;;;;4.50;100.00;100957.06;4987903;28;19930;-82
2023/12/20 10:45:30;;;;;;;;;;;;;;;4.61;100.00;100931.97;4973681;28;19922;-82
2023/12/20 10:50:58;;;;;;;;;;;;;;;4.71;100.00;100930.03;4976016;28;19925;-84
2023/12/20 10:53:25;;;;;;;;;;;;;;;4.78;100.00;100932.91;4961769;28;19922;-83
2023/12/20 10:55:50;;;;;;;;;;;;;;;4.79;100.00;100934.59;4974365;28;20402;-83
2023/12/20 10:58:39;;;;;;;;;;;;;;;;;;;;;
2023/12/20 11:04:19;;;;;;;;;;;;;;;4.98;100.00;100926.38;4978046;28;19925;-82
2023/12/20 11:06:46;;;;;;;;;;;;;;;4.97;100.00;100915.88;4961877;28;19922;-82
2023/12/20 11:09:46;;;;;;;;;;;;;;;4.93;100.00;100911.84;4962009;28;19941;-82
2023/12/20 11:12:48;;;;;;;;;;;;;;;5.00;100.00;100895.03;4974966;28;19933;-83
2023/12/20 11:18:48;;;;;;;;;;;;;;;5.17;100.00;100881.75;4974894;28;19924;-84
2023/12/20 11:21:19;;;;;;;;;;;;;;;5.17;100.00;100871.09;4913949;29;19983;-83
2023/12/20 11:23:53;;;;;;;;;;;;;;;5.25;100.00;100872.94;4903834;29;19941;-84
2023/12/20 11:29:41;;;;;;;;;;;;;;;5.25;100.00;100876.47;4973665;28;19918;-83
2023/12/20 11:32:47;;;;;;;;;;;;;;;5.28;100.00;100888.66;4973579;28;20366;-83
2023/12/20 11:35:18;;;;;;;;;;;;;;;5.25;100.00;100880.97;5342695;23;20660;-83
2023/12/20 11:40:53;;;;;;;;;;;;;;;5.35;100.00;100878.16;4975518;28;19925;-84
2023/12/20 11:43:52;;;;;;;;;;;;;;;5.29;100.00;100864.47;4984836;28;19958;-84
2023/12/20 11:46:26;;;;;;;;;;;;;;;5.26;100.00;100869.28;4993231;28;19918;-84
2023/12/20 11:48:51;;;;;;;;;;;;;;;5.28;100.00;100860.13;4978270;28;19926;-83
2023/12/20 11:51:32;;;;;;;;;;;;;;;5.50;100.00;100860.50;4973828;28;20247;-83
2023/12/20 11:54:00;;;;;;;;;;;;;;;5.82;100.00;100842.03;4974186;28;19981;-84
2023/12/20 11:56:50;;;;;;;;;;;;;;;5.81;100.00;100857.25;4974922;28;19914;-84
2023/12/20 11:59:49;;;;;;;;;;;;;;;6.03;100.00;100853.09;4987260;23;20025;-84
2023/12/20 12:05:01;;;;;;;;;;;;;;;6.50;100.00;100848.88;4978983;28;20017;-83
2023/12/20 12:10:50;;;;;;;;;;;;;;;7.37;100.00;100860.63;4993457;28;20048;-83
2023/12/20 12:13:17;;;;;;;;;;;;;;;8.00;100.00;100841.75;4996796;28;19918;-84
2023/12/20 12:15:50;;;;;;;;;;;;;;;8.04;100.00;100839.53;4980701;28;19988;-83
2023/12/20 12:18:27;;;;;;;;;;;;;;;8.14;100.00;100839.28;4965231;28;19922;-85
2023/12/20 12:26:49;;;;;;;;;;;;;;;6.75;100.00;100846.13;5126763;23;19926;-84
2023/12/20 12:29:14;;;;;;;;;;;;;;;6.18;100.00;100834.53;4978818;28;19926;-84
2023/12/20 12:31:59;;;;;;;;;;;;;;;6.15;100.00;100832.22;4985390;28;20270;-84
2023/12/20 12:40:05;;;;;;;;;;;;;;;;;;;;;
2023/12/20 12:42:53;;;;;;;;;;;;;;;6.09;100.00;100827.53;4989148;28;20374;-83
2023/12/20 13:22:58;;;;;;;;;;;;;;;6.39;100.00;100779.69;4993427;28;20564;-84
2023/12/20 13:33:56;;;;;;;;;;;;;;;6.55;100.00;100765.47;5422103;23;19925;-83
2023/12/20 13:46:23;;;;;;;;;;;;;;;6.39;100.00;100762.84;4995097;28;20455;-83
2023/12/20 13:52:23;;;;;;;;;;;;;;;6.14;100.00;100754.88;4995471;28;19964;-83
2023/12/20 13:54:54;;;;;;;;;;;;;;;6.10;100.00;100759.72;4978946;28;20387;-82
2023/12/20 13:57:57;;;;;;;;;;;;;;;6.05;100.00;100748.69;4977533;28;19922;-83
2023/12/20 14:00:22;;;;;;;;;;;;;;;6.07;100.00;100746.69;4975281;28;20036;-83
2023/12/20 14:02:54;;;;;;;;;;;;;;;6.01;100.00;100748.22;4989066;23;20032;-83
2023/12/20 14:05:19;;;;;;;;;;;;;;;6.00;100.00;100746.53;5180206;23;20374;-82
2023/12/20 14:07:51;;;;;;;;;;;;;;;5.94;100.00;100746.38;5248833;23;19932;-83
2023/12/20 14:10:19;;;;;;;;;;;;;;;6.01;100.00;100742.88;4995871;28;20370;-82
2023/12/20 14:13:03;;;;;;;;;;;;;;;6.10;100.00;100748.19;4993516;28;19926;-83
2023/12/20 14:15:28;;;;;;;;;;;;;;;6.10;100.00;100741.03;4986133;28;19921;-85
2023/12/20 14:29:09;;;;;;;;;;;;;;;5.83;100.00;100737.66;5160314;23;19929;-83
2023/12/20 14:31:53;;;;;;;;;;;;;;;5.86;100.00;100744.53;4995252;28;20428;-84
2023/12/20 14:34:18;;;;;;;;;;;;;;;5.93;100.00;100732.16;4994329;28;19920;-84
2023/12/20 14:36:43;;;;;;;;;;;;;;;5.95;100.00;100748.03;4993391;28;19926;-83
2023/12/20 14:39:15;;;;;;;;;;;;;;;5.85;100.00;100750.88;4987776;28;19945;-84
2023/12/20 14:41:50;;;;;;;;;;;;;;;6.01;100.00;100753.56;4990172;28;19922;-83
2023/12/20 14:44:25;;;;;;;;;;;;;;;6.05;100.00;100744.22;4994398;28;19922;-83
2023/12/20 14:46:53;;;;;;;;;;;;;;;6.06;100.00;100743.22;4986432;28;19929;-85
2023/12/20 14:49:27;;;;;;;;;;;;;;;6.00;100.00;100740.38;4989638;28;19921;-82
2023/12/20 14:51:52;;;;;;;;;;;;;;;5.90;100.00;100745.88;4988651;28;20386;-85
2023/12/20 14:54:24;;;;;;;;;;;;;;;5.77;100.00;100743.72;4978424;28;19918;-84
2023/12/20 14:57:31;;;;;;;;;;;;;;;;;;;;;
2023/12/20 15:00:21;;;;;;;;;;;;;;;5.79;100.00;100736.38;4929717;28;19918;-84
2023/12/20 15:03:08;;;;;;;;;;;;;;;5.75;100.00;100732.34;5001802;23;19957;-84
2023/12/20 15:05:52;;;;;;;;;;;;;;;5.83;100.00;100740.34;4993736;28;20003;-84
2023/12/20 15:08:27;;;;;;;;;;;;;;;5.74;100.00;100736.84;4992968;28;20394;-84
2023/12/20 15:10:53;;;;;;;;;;;;;;;5.88;100.00;100740.69;4992604;28;20040;-84
2023/12/20 15:13:24;;;;;;;;;;;;;;;5.79;100.00;100752.38;4992830;28;20323;-84
2023/12/20 15:16:10;;;;;;;;;;;;;;;5.80;100.00;100747.88;4993979;28;19918;-84
2023/12/20 15:19:00;;;;;;;;;;;;;;;5.75;100.00;100745.72;4996920;28;19949;-84
2023/12/20 15:24:51;;;;;;;;;;;;;;;5.64;100.00;100757.56;4993663;28;19929;-83
2023/12/20 15:27:32;;;;;;;;;;;;;;;5.52;100.00;100742.88;4993168;28;19953;-82
2023/12/20 15:30:09;;;;;;;;;;;;;;;5.58;100.00;100748.38;4991950;28;19917;-84
2023/12/20 15:32:56;;;;;;;;;;;;;;;5.64;100.00;100743.38;4993828;28;19964;-84
2023/12/20 15:35:24;;;;;;;;;;;;;;;5.67;100.00;100751.88;4993450;28;20038;-85
2023/12/20 15:37:58;;;;;;;;;;;;;;;5.58;100.00;100737.69;4993083;28;19921;-84
2023/12/20 15:40:45;;;;;;;;;;;;;;;5.53;100.00;100728.53;5264705;22;20231;-84
2023/12/20 15:43:50;;;;;;;;;;;;;;;5.52;100.00;100727.69;4973889;28;20012;-84
2023/12/20 15:46:52;;;;;;;;;;;;;;;5.54;100.00;100730.19;4976115;28;19918;-83
2023/12/20 15:49:51;;;;;;;;;;;;;;;5.64;100.00;100725.50;4981063;28;19922;-83
2023/12/20 15:55:51;;;;;;;;;;;;;;;5.68;100.00;100721.50;4978289;28;20397;-84
2023/12/20 15:58:16;;;;;;;;;;;;;;;5.69;100.00;100722.34;4976782;28;19984;-84
2023/12/20 16:03:38;;;;;;;;;;;;;;;5.69;100.00;100717.00;4936054;29;19927;-85
2023/12/20 16:06:28;;;;;;;;;;;;;;;5.69;100.00;100706.31;4935790;29;19923;-85
2023/12/20 16:09:12;;;;;;;;;;;;;;;5.79;100.00;100706.97;4965568;28;19972;-85
2023/12/20 16:14:53;;;;;;;;;;;;;;;5.82;100.00;100705.78;4977301;28;20002;-84
2023/12/20 16:32:53;;;;;;;;;;;;;;;5.84;100.00;100677.91;5018632;22;20368;-85
2023/12/20 16:44:05;;;;;;;;;;;;;;;5.76;100.00;100669.91;5224978;22;19926;-84
2023/12/20 16:47:04;;;;;;;;;;;;;;;5.73;100.00;100660.41;5019601;28;20029;-85
2023/12/20 16:49:58;;;;;;;;;;;;;;;5.69;100.00;100652.88;5004945;28;20426;-84
2023/12/20 17:01:22;;;;;;;;;;;;;;;5.73;100.00;100639.03;5006374;22;20287;-84
2023/12/20 17:03:50;;;;;;;;;;;;;;;5.75;100.00;100620.97;5318722;23;19979;-84
2023/12/20 17:06:23;;;;;;;;;;;;;;;5.77;100.00;100628.84;5000265;23;19935;-83
2023/12/20 17:08:51;;;;;;;;;;;;;;;5.58;100.00;100622.88;4976234;28;19937;-83
2023/12/20 17:23:19;;;;;;;;;;;;;;;5.75;100.00;100609.47;4957514;28;19922;-84
2023/12/20 17:26:25;;;;;;;;;;;;;;;5.68;100.00;100601.31;4956146;29;19969;-84
2023/12/20 17:28:51;;;;;;;;;;;;;;;5.80;100.00;100604.47;4955586;29;19923;-84
2023/12/20 17:37:27;;;;;;;;;;;;;;;5.61;100.00;100589.66;4950231;29;19976;-83
2023/12/20 17:39:58;;;;;;;;;;;;;;;5.60;100.00;100585.31;4953662;29;20374;-83
2023/12/20 17:42:48;;;;;;;;;;;;;;;5.76;100.00;100584.44;5133634;23;19936;-84
2023/12/20 17:45:22;;;;;;;;;;;;;;;5.78;100.00;100566.41;4981699;28;19926;-84
2023/12/20 17:47:54;;;;;;;;;;;;;;;5.72;100.00;100565.25;4973454;28;19922;-84
2023/12/20 17:50:19;;;;;;;;;;;;;;;5.68;100.00;100571.09;4980676;28;19936;-83
2023/12/20 17:52:50;;;;;;;;;;;;;;;5.71;100.00;100554.72;4986145;28;20024;-84
2023/12/20 17:55:23;;;;;;;;;;;;;;;5.73;100.00;100556.25;4984777;28;19957;-84